Data for 03/17/2017

Time Sea-Level Adjusted Pressure Absolute Pressure Temperature Relative Humidity Dew Point   
(mb) (inHg) (mb) (inHg) (C) (F) (%) (C) (F)
00:05 1023 30.21 852 25.16 1.8 35.3 55 -6.2 20.9
00:10 1023 30.21 852 25.16 1.7 35 55 -6.4 20.5
00:15 1023 30.21 852 25.16 1.7 35 55 -6.3 20.6
00:20 1023 30.21 852 25.16 1.7 35 54 -6.6 20.2
00:25 1023 30.21 852 25.16 1.7 35 54 -6.6 20
00:30 1023 30.21 852 25.16 1.7 35.1 53 -6.8 19.8
00:35 1023 30.21 852 25.16 1.8 35.2 54 -6.6 20
00:40 1023 30.21 852 25.16 1.6 34.9 55 -6.5 20.4
00:45 1023 30.21 852 25.16 1.5 34.7 55 -6.7 19.9
00:50 1023 30.21 852 25.16 1.5 34.8 53 -7.1 19.2
00:55 1023 30.21 852 25.16 1.8 35.3 51 -7.3 18.9
01:00 1023 30.21 852 25.16 1.9 35.4 51 -7.2 19.1
01:05 1023 30.21 852 25.16 2 35.6 51 -7 19.4
01:10 1023 30.21 852 25.16 2 35.5 52 -6.9 19.6
01:15 1023 30.21 853 25.19 1.8 35.2 53 -6.9 19.6
01:20 1023 30.21 853 25.19 1.7 35 52 -7.1 19.3
01:25 1023 30.21 853 25.19 1.7 35.1 53 -6.9 19.5
01:30 1023 30.21 852 25.16 1.8 35.2 54 -6.6 20.1
01:35 1023 30.21 852 25.16 1.5 34.7 54 -6.8 19.7
01:40 1023 30.21 852 25.16 1.5 34.7 55 -6.6 20.2
01:45 1023 30.21 852 25.16 1.3 34.3 55 -6.8 19.7
01:50 1023 30.21 852 25.16 1.4 34.5 54 -6.9 19.5
01:55 1023 30.21 852 25.16 1.5 34.7 54 -6.9 19.6
02:00 1023 30.21 852 25.16 1.5 34.7 55 -6.6 20.1
02:05 1023 30.21 852 25.16 1.4 34.5 54 -6.9 19.6
02:10 1023 30.21 852 25.16 1.5 34.6 54 -6.8 19.8
02:15 1023 30.21 853 25.19 1.5 34.6 56 -6.5 20.4
02:20 1023 30.21 852 25.16 1.2 34.1 56 -6.8 19.8
02:25 1023 30.21 853 25.19 1.3 34.3 55 -6.7 19.9
02:30 1023 30.21 853 25.19 1.2 34.1 56 -6.7 19.9
02:35 1023 30.21 853 25.19 1.2 34.1 56 -6.6 20.1
02:40 1023 30.21 853 25.19 1.2 34.1 57 -6.5 20.3
02:45 1023 30.21 853 25.19 1.1 34 56 -6.7 20
02:50 1023 30.21 853 25.19 1.1 34 57 -6.5 20.4
02:55 1023 30.21 853 25.19 1.1 33.9 57 -6.5 20.3
03:00 1023 30.21 853 25.19 1.3 34.3 56 -6.6 20.1
03:05 1023 30.21 853 25.19 1.3 34.3 57 -6.4 20.5
03:10 1023 30.21 853 25.19 1.2 34.2 57 -6.4 20.5
03:15 1023 30.21 853 25.19 1.1 34 59 -6 21.3
03:20 1023 30.21 853 25.19 0.8 33.4 60 -6.2 20.9
03:25 1023 30.21 853 25.19 0.7 33.2 59 -6.3 20.6
03:30 1023 30.21 853 25.19 0.6 33.1 60 -6.4 20.5
03:35 1023 30.21 853 25.19 0.6 33.2 60 -6.3 20.6
03:40 1023 30.21 853 25.19 0.7 33.3 59 -6.5 20.3
03:45 1023 30.21 853 25.19 0.8 33.4 59 -6.3 20.6
03:50 1023 30.21 853 25.19 0.7 33.2 59 -6.4 20.5
03:55 1023 30.21 853 25.19 0.4 32.7 61 -6.4 20.6
04:00 1023 30.21 853 25.19 0.5 32.9 59 -6.6 20.1
04:05 1023 30.21 853 25.19 0.3 32.5 61 -6.4 20.5
04:10 1023 30.21 853 25.19 0.3 32.5 60 -6.6 20.1
04:15 1023 30.21 853 25.19 0.4 32.8 59 -6.6 20.1
04:20 1023 30.21 853 25.19 0.6 33 59 -6.6 20.1
04:25 1023 30.21 853 25.19 0.4 32.8 59 -6.7 20
04:30 1024 30.24 853 25.19 0.3 32.6 60 -6.5 20.2
04:35 1024 30.24 853 25.19 0.2 32.4 61 -6.5 20.4
04:40 1024 30.24 853 25.19 0.3 32.5 61 -6.4 20.5
04:45 1024 30.24 853 25.19 0.2 32.3 61 -6.5 20.4
04:50 1024 30.24 853 25.19 0.1 32.1 61 -6.5 20.3
04:55 1024 30.24 853 25.19 -0.1 31.9 62 -6.4 20.5
05:00 1024 30.24 853 25.19 -0.4 31.3 64 -6.4 20.4
05:05 1024 30.24 853 25.19 -0.4 31.3 61 -7.1 19.3
05:10 1024 30.24 853 25.19 -0.2 31.7 61 -6.9 19.6
05:15 1024 30.24 853 25.19 -0.1 31.9 59 -7.1 19.3
05:20 1024 30.24 853 25.19 0.2 32.3 58 -7.1 19.2
05:25 1024 30.24 853 25.19 0.3 32.5 58 -7.1 19.3
05:30 1024 30.24 853 25.19 0.4 32.7 58 -7 19.4
05:35 1024 30.24 853 25.19 0.3 32.6 59 -6.8 19.7
05:40 1024 30.24 853 25.19 0.3 32.5 58 -6.9 19.5
05:45 1024 30.24 853 25.19 0.3 32.6 58 -6.9 19.5
05:50 1024 30.24 853 25.19 0.4 32.7 58 -6.9 19.6
05:55 1024 30.24 853 25.19 0.4 32.7 58 -6.9 19.7
06:00 1024 30.24 853 25.19 0.4 32.6 59 -6.8 19.8
06:05 1024 30.24 853 25.19 0.3 32.6 59 -6.7 20
06:10 1024 30.24 854 25.22 0.3 32.5 60 -6.7 20
06:15 1024 30.24 854 25.22 0.2 32.4 60 -6.6 20.1
06:20 1024 30.24 854 25.22 0.2 32.3 61 -6.6 20.2
06:25 1024 30.24 854 25.22 0.1 32.3 61 -6.6 20.2
06:30 1024 30.24 854 25.22 0.2 32.3 60 -6.6 20
06:35 1024 30.24 854 25.22 0.2 32.4 60 -6.7 19.9
06:40 1024 30.24 853 25.19 0.3 32.5 60 -6.6 20
06:45 1024 30.24 853 25.19 0.3 32.5 60 -6.6 20.1
06:50 1024 30.24 853 25.19 0.3 32.5 61 -6.4 20.4
06:55 1024 30.24 854 25.22 -0 31.9 62 -6.5 20.4
07:00 1024 30.24 854 25.22 -0 32 61 -6.6 20.2
07:05 1024 30.24 853 25.19 0 32 62 -6.4 20.5
07:10 1024 30.24 853 25.19 -0 31.9 62 -6.4 20.5
07:15 1024 30.24 854 25.22 -0.2 31.7 64 -6.2 20.8
07:20 1024 30.24 854 25.22 -0.2 31.6 63 -6.5 20.3
07:25 1024 30.24 853 25.19 0.1 32.1 62 -6.4 20.4
07:30 1024 30.24 853 25.19 0 32 60 -6.8 19.8
07:35 1024 30.24 853 25.19 0.2 32.3 59 -7 19.5
07:40 1024 30.24 854 25.22 0.3 32.5 60 -6.6 20.1
07:45 1024 30.24 854 25.22 0 32.1 62 -6.4 20.5
07:50 1024 30.24 854 25.22 -0.1 31.8 63 -6.3 20.6
07:55 1024 30.24 854 25.22 -0.3 31.5 64 -6.3 20.6
08:00 1024 30.24 854 25.22 -0.4 31.4 64 -6.4 20.5
08:05 1024 30.24 854 25.22 -0.1 31.8 60 -7 19.4
08:10 1024 30.24 854 25.22 0 32 61 -6.6 20.2
08:15 1024 30.24 854 25.22 0.1 32.2 58 -7.2 19.1
08:20 1024 30.24 854 25.22 0.3 32.6 59 -6.8 19.8
08:25 1024 30.24 854 25.22 0.3 32.5 58 -7 19.4
08:30 1024 30.24 854 25.22 0.4 32.7 58 -6.9 19.5
08:35 1024 30.24 854 25.22 0.3 32.5 60 -6.7 20
08:40 1025 30.27 854 25.22 0.4 32.7 57 -7.1 19.2
08:45 1025 30.27 854 25.22 0.7 33.2 57 -6.9 19.6
08:50 1025 30.27 854 25.22 0.9 33.6 57 -6.7 19.9
08:55 1025 30.27 854 25.22 1.1 34 56 -6.7 20
09:00 1025 30.27 854 25.22 1.5 34.7 53 -7.1 19.2
09:05 1025 30.27 854 25.22 1.6 34.9 53 -7 19.4
09:10 1025 30.27 854 25.22 1.8 35.3 51 -7.2 19.1
09:15 1025 30.27 854 25.22 2.1 35.8 51 -6.9 19.6
09:20 1025 30.27 854 25.22 2.5 36.6 50 -6.9 19.5
09:25 1025 30.27 854 25.22 2.7 36.9 49 -7 19.4
09:30 1025 30.27 854 25.22 3.1 37.6 48 -6.9 19.6
09:35 1025 30.27 854 25.22 3.5 38.4 47 -6.7 19.9
09:40 1025 30.27 854 25.22 4.1 39.4 47 -6.3 20.7
09:45 1025 30.27 854 25.22 4.5 40.1 45 -6.5 20.2
09:50 1024 30.24 854 25.22 4.9 40.8 44 -6.3 20.7
09:55 1024 30.24 854 25.22 4.6 40.3 45 -6.3 20.6
10:00 1024 30.24 854 25.22 4.6 40.3 45 -6.3 20.6
10:05 1024 30.24 854 25.22 5.4 41.8 42 -6.5 20.3
10:10 1024 30.24 854 25.22 5.3 41.5 41 -6.8 19.7
10:15 1024 30.24 853 25.19 5.6 42 40 -7.1 19.3
10:20 1024 30.24 853 25.19 5.7 42.3 40 -6.9 19.6
10:25 1024 30.24 853 25.19 5.6 42 40 -7.1 19.1
10:30 1024 30.24 853 25.19 5.4 41.8 42 -6.5 20.3
10:35 1024 30.24 853 25.19 5.7 42.2 39 -7.1 19.2
10:40 1024 30.24 853 25.19 6.2 43.1 38 -7 19.4
10:45 1024 30.24 853 25.19 5.9 42.6 38 -7.5 18.6
10:50 1024 30.24 853 25.19 6.8 44.3 36 -7.2 19
10:55 1024 30.24 853 25.19 7.6 45.7 35 -6.9 19.6
11:00 1024 30.24 853 25.19 6.8 44.2 39 -6.3 20.7
11:05 1024 30.24 853 25.19 7.2 45 38 -6 21.2
11:10 1024 30.24 853 25.19 7.5 45.5 37 -6.1 21
11:15 1024 30.24 853 25.19 7.9 46.2 37 -5.7 21.7
11:20 1024 30.24 853 25.19 7.8 46.1 36 -6.4 20.4
11:25 1024 30.24 853 25.19 8.3 46.9 36 -6 21.2
11:30 1024 30.24 853 25.19 8.2 46.7 37 -5.6 22
11:35 1024 30.24 853 25.19 8.2 46.7 36 -6 21.2
11:40 1023 30.21 853 25.19 8.2 46.8 36 -6.1 21.1
11:45 1023 30.21 853 25.19 8.8 47.8 35 -5.9 21.5
11:50 1023 30.21 853 25.19 9 48.2 38 -4.6 23.7
11:55 1023 30.21 853 25.19 8.8 47.8 36 -5.4 22.3
12:00 1023 30.21 852 25.16 8.1 46.6 36 -6 21.2
12:05 1023 30.21 852 25.16 8.6 47.5 34 -6.5 20.3
12:10 1023 30.21 852 25.16 8.5 47.2 36 -5.8 21.5
12:15 1023 30.21 852 25.16 8.7 47.6 35 -5.7 21.7
12:20 1023 30.21 852 25.16 9 48.1 35 -5.8 21.6
12:25 1023 30.21 852 25.16 8 46.3 40 -5 23.1
12:30 1023 30.21 852 25.16 7.7 45.9 41 -4.8 23.4
12:35 1023 30.21 852 25.16 8.3 46.9 36 -6 21.2
12:40 1023 30.21 852 25.16 9.4 49 34 -5.7 21.8
12:45 1023 30.21 852 25.16 9.9 49.8 33 -5.5 22.1
12:50 1023 30.21 852 25.16 10.1 50.1 32 -5.8 21.6
12:55 1023 30.21 852 25.16 10.2 50.4 31 -5.9 21.3
13:00 1022 30.18 852 25.16 10.1 50.1 32 -5.9 21.4
13:05 1022 30.18 852 25.16 10.2 50.3 33 -5.6 22
13:10 1022 30.18 852 25.16 9.3 48.8 34 -5.9 21.4
13:15 1022 30.18 851 25.13 9.3 48.7 33 -6.3 20.7
13:20 1022 30.18 851 25.13 10.5 50.8 30 -6.2 20.9
13:25 1022 30.18 851 25.13 10.8 51.5 29 -6.5 20.4
13:30 1022 30.18 851 25.13 11.3 52.3 29 -6.1 21
13:35 1022 30.18 851 25.13 12.3 54.1 28 -5.7 21.7
13:40 1022 30.18 851 25.13 11.6 52.9 31 -5.1 22.8
13:45 1022 30.18 851 25.13 11.1 52 28 -6.5 20.3
13:50 1022 30.18 851 25.13 12.5 54.4 26 -6.6 20
13:55 1022 30.18 851 25.13 13.2 55.7 26 -5.9 21.4
14:00 1022 30.18 851 25.13 13.1 55.5 25 -6.3 20.7
14:05 1022 30.18 851 25.13 12.7 54.8 27 -6 21.2
14:10 1022 30.18 851 25.13 12.5 54.6 26 -6.7 20
14:15 1022 30.18 851 25.13 12.6 54.6 26 -6.3 20.6
14:20 1021 30.15 851 25.13 12.5 54.5 25 -6.7 19.9
14:25 1021 30.15 851 25.13 12.3 54.2 26 -6.7 20
14:30 1021 30.15 851 25.13 12.5 54.4 26 -6.7 20
14:35 1021 30.15 851 25.13 12.5 54.5 25 -6.8 19.8
14:40 1021 30.15 851 25.13 12.5 54.5 25 -6.9 19.6
14:45 1021 30.15 851 25.13 12.3 54.1 25 -7.1 19.3
14:50 1021 30.15 850 25.1 12.2 54 26 -6.8 19.8
14:55 1021 30.15 850 25.1 11.8 53.3 25 -7.4 18.7
15:00 1021 30.15 850 25.1 12 53.6 26 -7 19.4
15:05 1021 30.15 850 25.1 12.1 53.8 26 -7 19.4
15:10 1021 30.15 850 25.1 12.3 54.1 25 -7.1 19.2
15:15 1021 30.15 850 25.1 12 53.6 26 -7.1 19.3
15:20 1021 30.15 850 25.1 12.1 53.8 25 -7.3 18.8
15:25 1021 30.15 850 25.1 12.9 55.2 24 -7.4 18.7
15:30 1021 30.15 850 25.1 13.5 56.3 23 -6.9 19.6
15:35 1020 30.12 850 25.1 13.4 56.1 25 -6.4 20.5
15:40 1020 30.12 850 25.1 13.1 55.6 25 -6.6 20.2
15:45 1020 30.12 849 25.07 12.6 54.8 26 -6.5 20.3
15:50 1020 30.12 849 25.07 12.4 54.3 26 -6.5 20.3
15:55 1020 30.12 849 25.07 12.5 54.5 26 -6.2 20.8
16:00 1020 30.12 849 25.07 12.7 54.9 27 -5.7 21.7
16:05 1020 30.12 849 25.07 12.6 54.6 28 -5.6 21.9
16:10 1020 30.12 849 25.07 12.5 54.5 27 -5.8 21.6
16:15 1020 30.12 849 25.07 12.8 55.1 27 -5.5 22.1
16:20 1020 30.12 849 25.07 13.1 55.6 27 -5.6 21.9
16:25 1020 30.12 849 25.07 13.4 56.2 27 -5.4 22.4
16:30 1020 30.12 849 25.07 13.3 56 26 -5.5 22.1
16:35 1020 30.12 849 25.07 13.4 56.1 27 -5.1 22.7
16:40 1020 30.12 849 25.07 13.5 56.3 26 -5.5 22.1
16:45 1020 30.12 849 25.07 13.4 56 26 -5.7 21.7
16:50 1020 30.12 849 25.07 13.3 56 25 -6 21.1
16:55 1020 30.12 849 25.07 13 55.5 26 -6 21.2
17:00 1020 30.12 849 25.07 13.1 55.6 26 -6 21.2
17:05 1020 30.12 849 25.07 13.2 55.8 26 -6 21.2
17:10 1020 30.12 849 25.07 13 55.3 26 -5.9 21.3
17:15 1020 30.12 849 25.07 13 55.3 26 -5.9 21.4
17:20 1020 30.12 849 25.07 13 55.4 26 -5.8 21.5
17:25 1019 30.09 849 25.07 12.9 55.2 27 -5.7 21.7
17:30 1019 30.09 849 25.07 12.9 55.2 27 -5.7 21.8
17:35 1019 30.09 848 25.04 12.8 55 27 -5.9 21.4
17:40 1019 30.09 848 25.04 12.9 55.1 27 -5.8 21.6
17:45 1019 30.09 848 25.04 12.9 55.3 27 -5.8 21.6
17:50 1019 30.09 848 25.04 13 55.3 27 -5.5 22.1
17:55 1019 30.09 848 25.04 12.7 54.9 27 -5.6 21.9
18:00 1019 30.09 848 25.04 12.7 54.9 27 -5.7 21.8
18:05 1019 30.09 848 25.04 12.7 54.8 27 -5.7 21.7
18:10 1019 30.09 848 25.04 12.7 54.8 27 -5.6 21.9
18:15 1019 30.09 848 25.04 12.7 54.8 27 -5.6 22
18:20 1019 30.09 848 25.04 12.7 54.9 28 -5.3 22.4
18:25 1019 30.09 848 25.04 12.6 54.7 28 -5.2 22.6
18:30 1019 30.09 848 25.04 12.5 54.4 29 -5.2 22.6
18:35 1019 30.09 848 25.04 12.3 54.2 29 -5 23
18:40 1019 30.09 848 25.04 12.3 54.1 29 -5 23
18:45 1019 30.09 848 25.04 12.1 53.8 30 -5 23
18:50 1019 30.09 848 25.04 11.9 53.4 30 -5.2 22.7
18:55 1019 30.09 848 25.04 11.8 53.2 30 -5.1 22.9
19:00 1019 30.09 848 25.04 11.7 53 31 -5 22.9
19:05 1019 30.09 848 25.04 11.7 53 31 -4.8 23.3
19:10 1019 30.09 848 25.04 11.6 52.8 31 -4.9 23.2
19:15 1019 30.09 848 25.04 11.4 52.5 32 -4.7 23.5
19:20 1019 30.09 848 25.04 11.4 52.5 32 -4.6 23.6
19:25 1019 30.09 848 25.04 11.4 52.5 32 -4.7 23.6
19:30 1019 30.09 848 25.04 11.4 52.5 32 -4.5 23.8
19:35 1019 30.09 848 25.04 11.6 52.8 33 -4.3 24.2
19:40 1019 30.09 848 25.04 11.5 52.6 33 -4.3 24.3
19:45 1019 30.09 848 25.04 11.5 52.6 33 -4.2 24.5
19:50 1019 30.09 848 25.04 11.4 52.5 33 -4.2 24.5
19:55 1019 30.09 848 25.04 11.3 52.4 33 -4.2 24.4
20:00 1019 30.09 848 25.04 11.3 52.3 34 -4 24.7
20:05 1019 30.09 848 25.04 11.1 52.1 34 -4.3 24.3
20:10 1019 30.09 848 25.04 11.2 52.1 33 -4.4 24
20:15 1019 30.09 848 25.04 11.2 52.1 34 -4.2 24.5
20:20 1019 30.09 848 25.04 10.9 51.6 34 -4.1 24.6
20:25 1019 30.09 848 25.04 10.8 51.4 35 -4.1 24.6
20:30 1019 30.09 848 25.04 10.8 51.4 35 -4.1 24.7
20:35 1019 30.09 848 25.04 10.6 51.1 36 -3.8 25.1
20:40 1019 30.09 848 25.04 10.5 50.9 36 -3.8 25.1
20:45 1019 30.09 848 25.04 10.5 50.8 37 -3.7 25.4
20:50 1019 30.09 848 25.04 10.3 50.5 37 -3.7 25.4
20:55 1019 30.09 848 25.04 10.2 50.4 38 -3.5 25.7
21:00 1019 30.09 848 25.04 10.2 50.3 37 -3.8 25.2
21:05 1019 30.09 848 25.04 10.3 50.5 37 -3.9 25.1
21:10 1019 30.09 848 25.04 10.4 50.6 37 -3.7 25.4
21:15 1019 30.09 848 25.04 10.3 50.5 38 -3.6 25.6
21:20 1019 30.09 848 25.04 10.3 50.6 37 -3.6 25.5
21:25 1019 30.09 848 25.04 10.4 50.7 37 -3.6 25.5
21:30 1019 30.09 848 25.04 10.4 50.7 37 -3.5 25.6
21:35 1019 30.09 848 25.04 10.3 50.6 38 -3.5 25.7
21:40 1019 30.09 848 25.04 10.4 50.7 38 -3.3 26.1
21:45 1019 30.09 848 25.04 10.2 50.4 38 -3.5 25.7
21:50 1019 30.09 848 25.04 10.4 50.7 38 -3.3 26
21:55 1019 30.09 848 25.04 10.3 50.5 38 -3.3 26.1
22:00 1019 30.09 848 25.04 10.3 50.5 38 -3.4 25.9
22:05 1019 30.09 848 25.04 10.3 50.5 38 -3.5 25.8
22:10 1019 30.09 848 25.04 10.3 50.5 39 -3.2 26.2
22:15 1019 30.09 848 25.04 10.1 50.3 38 -3.4 25.9
22:20 1019 30.09 848 25.04 10.2 50.4 38 -3.5 25.8
22:25 1019 30.09 848 25.04 10.3 50.6 38 -3.2 26.2
22:30 1019 30.09 848 25.04 10.3 50.6 38 -3.2 26.2
22:35 1019 30.09 848 25.04 10.2 50.4 38 -3.3 26
22:40 1019 30.09 848 25.04 10.1 50.2 39 -3.3 26
22:45 1019 30.09 848 25.04 10.2 50.3 39 -3.2 26.3
22:50 1019 30.09 848 25.04 10.2 50.4 38 -3.4 25.8
22:55 1019 30.09 848 25.04 10.2 50.3 39 -3.2 26.2
23:00 1019 30.09 848 25.04 10 49.9 39 -3.2 26.3
23:05 1019 30.09 848 25.04 9.9 49.8 40 -3.1 26.3
23:10 1019 30.09 848 25.04 9.8 49.6 40 -3.3 26.1
23:15 1019 30.09 848 25.04 9.9 49.7 39 -3.3 26.1
23:20 1019 30.09 848 25.04 9.7 49.5 41 -3 26.6
23:25 1019 30.09 848 25.04 9.5 49.2 41 -3 26.6
23:30 1019 30.09 848 25.04 9.5 49.1 41 -3 26.6
23:35 1019 30.09 848 25.04 9.4 48.9 42 -2.9 26.7
23:40 1019 30.09 848 25.04 9.3 48.7 42 -2.9 26.7
23:45 1019 30.09 848 25.04 9.2 48.6 42 -3.1 26.5
23:50 1019 30.09 848 25.04 9.2 48.6 42 -2.9 26.7
23:55 1019 30.09 848 25.04 9.1 48.5 42 -3 26.5
24:00 1019 30.09 848 25.04 9.2 48.5 43 -2.8 27